sensor_id;sensor_type;location;lat;lon;timestamp;temperature;humidity
71254;HTU21D;59019;47.638;18.966;2024-01-25T00:00:55;9.11;77.12
71254;HTU21D;59019;47.638;18.966;2024-01-25T00:03:21;9.18;77.11
71254;HTU21D;59019;47.638;18.966;2024-01-25T00:05:48;9.17;77.09
71254;HTU21D;59019;47.638;18.966;2024-01-25T00:08:14;9.23;76.92
71254;HTU21D;59019;47.638;18.966;2024-01-25T00:10:41;9.32;76.64
71254;HTU21D;59019;47.638;18.966;2024-01-25T00:13:08;9.27;76.41
71254;HTU21D;59019;47.638;18.966;2024-01-25T00:15:34;9.36;76.50
71254;HTU21D;59019;47.638;18.966;2024-01-25T00:18:01;9.35;76.55
71254;HTU21D;59019;47.638;18.966;2024-01-25T00:20:27;9.22;76.96
71254;HTU21D;59019;47.638;18.966;2024-01-25T00:22:58;9.07;77.60
71254;HTU21D;59019;47.638;18.966;2024-01-25T00:25:24;9.14;77.27
71254;HTU21D;59019;47.638;18.966;2024-01-25T00:27:51;9.18;77.25
71254;HTU21D;59019;47.638;18.966;2024-01-25T00:30:18;9.11;77.45
71254;HTU21D;59019;47.638;18.966;2024-01-25T00:32:44;9.10;77.68
71254;HTU21D;59019;47.638;18.966;2024-01-25T00:35:10;9.02;77.76
71254;HTU21D;59019;47.638;18.966;2024-01-25T00:37:37;8.93;77.76
71254;HTU21D;59019;47.638;18.966;2024-01-25T00:40:05;8.78;78.37
71254;HTU21D;59019;47.638;18.966;2024-01-25T00:42:36;8.61;78.97
71254;HTU21D;59019;47.638;18.966;2024-01-25T00:45:06;8.64;79.23
71254;HTU21D;59019;47.638;18.966;2024-01-25T00:47:35;8.50;80.05
71254;HTU21D;59019;47.638;18.966;2024-01-25T00:50:03;8.26;80.65
71254;HTU21D;59019;47.638;18.966;2024-01-25T00:52:29;8.16;80.81
71254;HTU21D;59019;47.638;18.966;2024-01-25T00:54:57;8.02;81.17
71254;HTU21D;59019;47.638;18.966;2024-01-25T00:57:24;8.03;81.34
71254;HTU21D;59019;47.638;18.966;2024-01-25T00:59:52;8.14;80.38
71254;HTU21D;59019;47.638;18.966;2024-01-25T01:02:20;8.32;79.81
71254;HTU21D;59019;47.638;18.966;2024-01-25T01:04:47;8.29;79.75
71254;HTU21D;59019;47.638;18.966;2024-01-25T01:07:15;8.26;79.63
71254;HTU21D;59019;47.638;18.966;2024-01-25T01:09:42;8.46;78.99
71254;HTU21D;59019;47.638;18.966;2024-01-25T01:12:08;8.53;78.45
71254;HTU21D;59019;47.638;18.966;2024-01-25T01:14:34;8.49;78.55
71254;HTU21D;59019;47.638;18.966;2024-01-25T01:17:01;8.61;78.48
71254;HTU21D;59019;47.638;18.966;2024-01-25T01:19:27;8.57;78.27
71254;HTU21D;59019;47.638;18.966;2024-01-25T01:21:54;8.72;77.77
71254;HTU21D;59019;47.638;18.966;2024-01-25T01:24:20;8.77;77.59
71254;HTU21D;59019;47.638;18.966;2024-01-25T01:26:47;8.71;77.95
71254;HTU21D;59019;47.638;18.966;2024-01-25T01:29:14;8.72;78.21
71254;HTU21D;59019;47.638;18.966;2024-01-25T01:31:41;8.73;78.24
71254;HTU21D;59019;47.638;18.966;2024-01-25T01:34:07;8.74;78.30
71254;HTU21D;59019;47.638;18.966;2024-01-25T01:36:34;8.77;77.98
71254;HTU21D;59019;47.638;18.966;2024-01-25T01:39:00;8.77;77.80
71254;HTU21D;59019;47.638;18.966;2024-01-25T01:41:26;8.74;77.80
71254;HTU21D;59019;47.638;18.966;2024-01-25T01:43:54;8.75;78.24
71254;HTU21D;59019;47.638;18.966;2024-01-25T01:46:37;8.79;78.17
71254;HTU21D;59019;47.638;18.966;2024-01-25T01:49:07;8.65;78.40
71254;HTU21D;59019;47.638;18.966;2024-01-25T01:51:34;8.61;78.66
71254;HTU21D;59019;47.638;18.966;2024-01-25T01:54:02;8.65;78.56
71254;HTU21D;59019;47.638;18.966;2024-01-25T01:56:28;8.64;78.72
71254;HTU21D;59019;47.638;18.966;2024-01-25T01:59:15;8.53;78.92
71254;HTU21D;59019;47.638;18.966;2024-01-25T02:01:42;8.57;78.63
71254;HTU21D;59019;47.638;18.966;2024-01-25T02:04:08;8.59;78.77
71254;HTU21D;59019;47.638;18.966;2024-01-25T02:06:35;8.63;78.30
71254;HTU21D;59019;47.638;18.966;2024-01-25T02:09:01;8.57;78.42
71254;HTU21D;59019;47.638;18.966;2024-01-25T02:11:28;8.61;78.18
71254;HTU21D;59019;47.638;18.966;2024-01-25T02:13:55;8.67;77.34
71254;HTU21D;59019;47.638;18.966;2024-01-25T02:16:21;8.77;76.82
71254;HTU21D;59019;47.638;18.966;2024-01-25T02:18:47;8.77;76.83
71254;HTU21D;59019;47.638;18.966;2024-01-25T02:21:13;8.65;77.31
71254;HTU21D;59019;47.638;18.966;2024-01-25T02:23:40;8.61;77.69
71254;HTU21D;59019;47.638;18.966;2024-01-25T02:26:07;8.80;76.56
71254;HTU21D;59019;47.638;18.966;2024-01-25T02:28:32;8.83;76.34
71254;HTU21D;59019;47.638;18.966;2024-01-25T02:31:00;8.83;76.91
71254;HTU21D;59019;47.638;18.966;2024-01-25T02:33:27;8.83;76.66
71254;HTU21D;59019;47.638;18.966;2024-01-25T02:35:53;8.86;76.79
71254;HTU21D;59019;47.638;18.966;2024-01-25T02:38:19;8.82;76.72
71254;HTU21D;59019;47.638;18.966;2024-01-25T02:40:45;8.94;76.18
71254;HTU21D;59019;47.638;18.966;2024-01-25T02:43:12;9.03;76.08
71254;HTU21D;59019;47.638;18.966;2024-01-25T02:45:38;8.92;76.36
71254;HTU21D;59019;47.638;18.966;2024-01-25T02:48:05;8.88;76.56
71254;HTU21D;59019;47.638;18.966;2024-01-25T02:50:32;8.91;76.66
71254;HTU21D;59019;47.638;18.966;2024-01-25T02:52:59;8.81;76.98
71254;HTU21D;59019;47.638;18.966;2024-01-25T02:55:25;8.82;77.20
71254;HTU21D;59019;47.638;18.966;2024-01-25T02:57:51;8.98;77.04
71254;HTU21D;59019;47.638;18.966;2024-01-25T03:00:18;8.87;77.30
71254;HTU21D;59019;47.638;18.966;2024-01-25T03:02:45;8.91;77.58
71254;HTU21D;59019;47.638;18.966;2024-01-25T03:05:11;8.85;77.89
71254;HTU21D;59019;47.638;18.966;2024-01-25T03:07:38;8.76;78.47
71254;HTU21D;59019;47.638;18.966;2024-01-25T03:10:06;8.71;79.30
71254;HTU21D;59019;47.638;18.966;2024-01-25T03:12:33;8.68;79.64
71254;HTU21D;59019;47.638;18.966;2024-01-25T03:15:00;8.48;80.27
71254;HTU21D;59019;47.638;18.966;2024-01-25T03:17:26;8.24;80.78
71254;HTU21D;59019;47.638;18.966;2024-01-25T03:19:52;8.27;81.45
71254;HTU21D;59019;47.638;18.966;2024-01-25T03:22:19;8.16;81.76
71254;HTU21D;59019;47.638;18.966;2024-01-25T03:24:45;8.15;82.22
71254;HTU21D;59019;47.638;18.966;2024-01-25T03:27:12;8.06;82.30
71254;HTU21D;59019;47.638;18.966;2024-01-25T03:29:43;8.23;82.15
71254;HTU21D;59019;47.638;18.966;2024-01-25T03:32:12;8.24;82.15
71254;HTU21D;59019;47.638;18.966;2024-01-25T03:34:39;8.29;82.16
71254;HTU21D;59019;47.638;18.966;2024-01-25T03:37:05;8.29;82.14
71254;HTU21D;59019;47.638;18.966;2024-01-25T03:39:31;8.29;82.31
71254;HTU21D;59019;47.638;18.966;2024-01-25T03:41:57;8.24;82.60
71254;HTU21D;59019;47.638;18.966;2024-01-25T03:44:23;8.21;82.94
71254;HTU21D;59019;47.638;18.966;2024-01-25T03:46:49;8.32;82.78
71254;HTU21D;59019;47.638;18.966;2024-01-25T03:49:16;8.18;82.91
71254;HTU21D;59019;47.638;18.966;2024-01-25T03:51:42;8.28;82.44
71254;HTU21D;59019;47.638;18.966;2024-01-25T03:54:08;8.43;82.31
71254;HTU21D;59019;47.638;18.966;2024-01-25T03:56:35;8.30;82.25
71254;HTU21D;59019;47.638;18.966;2024-01-25T03:59:01;8.39;82.20
71254;HTU21D;59019;47.638;18.966;2024-01-25T04:01:28;8.39;81.88
71254;HTU21D;59019;47.638;18.966;2024-01-25T04:03:54;8.31;82.17
71254;HTU21D;59019;47.638;18.966;2024-01-25T04:06:20;8.27;81.47
71254;HTU21D;59019;47.638;18.966;2024-01-25T04:08:51;8.42;80.59
71254;HTU21D;59019;47.638;18.966;2024-01-25T04:11:18;8.44;80.13
71254;HTU21D;59019;47.638;18.966;2024-01-25T04:13:44;8.51;79.75
71254;HTU21D;59019;47.638;18.966;2024-01-25T04:16:14;8.60;79.33
71254;HTU21D;59019;47.638;18.966;2024-01-25T04:18:40;8.57;79.40
71254;HTU21D;59019;47.638;18.966;2024-01-25T04:21:07;8.59;78.78
71254;HTU21D;59019;47.638;18.966;2024-01-25T04:23:35;8.64;78.43
71254;HTU21D;59019;47.638;18.966;2024-01-25T04:26:01;8.65;78.49
71254;HTU21D;59019;47.638;18.966;2024-01-25T04:28:28;8.63;78.43
71254;HTU21D;59019;47.638;18.966;2024-01-25T04:30:55;8.66;78.47
71254;HTU21D;59019;47.638;18.966;2024-01-25T04:33:24;8.72;78.19
71254;HTU21D;59019;47.638;18.966;2024-01-25T04:35:50;8.63;78.46
71254;HTU21D;59019;47.638;18.966;2024-01-25T04:38:16;8.59;78.63
71254;HTU21D;59019;47.638;18.966;2024-01-25T04:40:43;8.60;78.79
71254;HTU21D;59019;47.638;18.966;2024-01-25T04:43:09;8.58;78.82
71254;HTU21D;59019;47.638;18.966;2024-01-25T04:45:40;8.46;79.40
71254;HTU21D;59019;47.638;18.966;2024-01-25T04:48:07;8.47;79.66
71254;HTU21D;59019;47.638;18.966;2024-01-25T04:50:33;8.33;80.10
71254;HTU21D;59019;47.638;18.966;2024-01-25T04:53:01;8.29;80.35
71254;HTU21D;59019;47.638;18.966;2024-01-25T04:55:28;8.35;80.33
71254;HTU21D;59019;47.638;18.966;2024-01-25T04:57:54;8.32;80.30
71254;HTU21D;59019;47.638;18.966;2024-01-25T05:00:22;8.22;80.79
71254;HTU21D;59019;47.638;18.966;2024-01-25T05:02:48;8.12;81.35
71254;HTU21D;59019;47.638;18.966;2024-01-25T05:05:15;8.01;81.91
71254;HTU21D;59019;47.638;18.966;2024-01-25T05:07:41;8.07;81.85
71254;HTU21D;59019;47.638;18.966;2024-01-25T05:10:07;7.96;81.85
71254;HTU21D;59019;47.638;18.966;2024-01-25T05:12:34;8.04;81.76
71254;HTU21D;59019;47.638;18.966;2024-01-25T05:15:00;8.09;81.46
71254;HTU21D;59019;47.638;18.966;2024-01-25T05:17:26;8.03;81.30
71254;HTU21D;59019;47.638;18.966;2024-01-25T05:19:53;7.96;82.11
71254;HTU21D;59019;47.638;18.966;2024-01-25T05:22:19;7.98;82.17
71254;HTU21D;59019;47.638;18.966;2024-01-25T05:24:47;7.91;82.55
71254;HTU21D;59019;47.638;18.966;2024-01-25T05:27:13;7.83;83.07
71254;HTU21D;59019;47.638;18.966;2024-01-25T05:29:40;7.89;83.10
71254;HTU21D;59019;47.638;18.966;2024-01-25T05:32:06;7.79;83.27
71254;HTU21D;59019;47.638;18.966;2024-01-25T05:34:33;7.70;83.80
71254;HTU21D;59019;47.638;18.966;2024-01-25T05:36:59;7.79;83.75
71254;HTU21D;59019;47.638;18.966;2024-01-25T05:39:45;7.72;83.78
71254;HTU21D;59019;47.638;18.966;2024-01-25T05:42:11;7.77;83.74
71254;HTU21D;59019;47.638;18.966;2024-01-25T05:44:38;7.69;84.24
71254;HTU21D;59019;47.638;18.966;2024-01-25T05:47:04;7.65;84.38
71254;HTU21D;59019;47.638;18.966;2024-01-25T05:49:31;7.61;84.80
71254;HTU21D;59019;47.638;18.966;2024-01-25T05:51:57;7.64;84.87
71254;HTU21D;59019;47.638;18.966;2024-01-25T05:54:23;7.67;84.56
71254;HTU21D;59019;47.638;18.966;2024-01-25T05:56:54;7.64;84.75
71254;HTU21D;59019;47.638;18.966;2024-01-25T05:59:21;7.64;84.87
71254;HTU21D;59019;47.638;18.966;2024-01-25T06:01:57;7.62;85.14
71254;HTU21D;59019;47.638;18.966;2024-01-25T06:04:23;7.64;85.29
71254;HTU21D;59019;47.638;18.966;2024-01-25T06:06:50;7.63;85.57
71254;HTU21D;59019;47.638;18.966;2024-01-25T06:09:16;7.53;85.93
71254;HTU21D;59019;47.638;18.966;2024-01-25T06:11:43;7.52;86.45
71254;HTU21D;59019;47.638;18.966;2024-01-25T06:14:11;7.50;86.69
71254;HTU21D;59019;47.638;18.966;2024-01-25T06:16:41;7.63;86.30
71254;HTU21D;59019;47.638;18.966;2024-01-25T06:19:11;7.64;86.09
71254;HTU21D;59019;47.638;18.966;2024-01-25T06:21:38;7.57;86.25
71254;HTU21D;59019;47.638;18.966;2024-01-25T06:24:04;7.62;86.26
71254;HTU21D;59019;47.638;18.966;2024-01-25T06:26:31;7.64;86.15
71254;HTU21D;59019;47.638;18.966;2024-01-25T06:28:58;7.60;86.44
71254;HTU21D;59019;47.638;18.966;2024-01-25T06:31:25;7.58;86.36
71254;HTU21D;59019;47.638;18.966;2024-01-25T06:33:51;7.43;87.01
71254;HTU21D;59019;47.638;18.966;2024-01-25T06:36:22;7.41;88.10
71254;HTU21D;59019;47.638;18.966;2024-01-25T06:38:48;7.38;87.35
71254;HTU21D;59019;47.638;18.966;2024-01-25T06:41:15;7.37;87.70
71254;HTU21D;59019;47.638;18.966;2024-01-25T06:43:43;7.15;87.70
71254;HTU21D;59019;47.638;18.966;2024-01-25T06:46:13;7.24;87.70
71254;HTU21D;59019;47.638;18.966;2024-01-25T06:48:39;7.17;87.67
71254;HTU21D;59019;47.638;18.966;2024-01-25T06:51:05;7.19;88.00
71254;HTU21D;59019;47.638;18.966;2024-01-25T06:53:31;7.15;88.06
71254;HTU21D;59019;47.638;18.966;2024-01-25T06:55:58;7.24;87.21
71254;HTU21D;59019;47.638;18.966;2024-01-25T06:58:24;7.23;86.96
71254;HTU21D;59019;47.638;18.966;2024-01-25T07:00:51;7.23;86.84
71254;HTU21D;59019;47.638;18.966;2024-01-25T07:03:18;7.28;86.79
71254;HTU21D;59019;47.638;18.966;2024-01-25T07:05:44;7.30;86.25
71254;HTU21D;59019;47.638;18.966;2024-01-25T07:08:11;7.29;86.04
71254;HTU21D;59019;47.638;18.966;2024-01-25T07:10:42;7.45;85.22
71254;HTU21D;59019;47.638;18.966;2024-01-25T07:13:08;7.42;84.88
71254;HTU21D;59019;47.638;18.966;2024-01-25T07:15:34;7.60;83.90
71254;HTU21D;59019;47.638;18.966;2024-01-25T07:18:00;7.74;83.04
71254;HTU21D;59019;47.638;18.966;2024-01-25T07:20:26;7.82;82.87
71254;HTU21D;59019;47.638;18.966;2024-01-25T07:22:57;7.93;82.28
71254;HTU21D;59019;47.638;18.966;2024-01-25T07:25:24;7.99;82.20
71254;HTU21D;59019;47.638;18.966;2024-01-25T07:27:50;8.06;81.62
71254;HTU21D;59019;47.638;18.966;2024-01-25T07:30:16;8.20;81.02
71254;HTU21D;59019;47.638;18.966;2024-01-25T07:32:42;8.11;81.06
71254;HTU21D;59019;47.638;18.966;2024-01-25T07:35:09;8.20;81.25
71254;HTU21D;59019;47.638;18.966;2024-01-25T07:37:36;8.20;80.79
71254;HTU21D;59019;47.638;18.966;2024-01-25T07:40:02;8.17;80.44
71254;HTU21D;59019;47.638;18.966;2024-01-25T07:42:29;8.24;80.64
71254;HTU21D;59019;47.638;18.966;2024-01-25T07:44:57;8.24;80.69
71254;HTU21D;59019;47.638;18.966;2024-01-25T07:47:23;8.16;80.51
71254;HTU21D;59019;47.638;18.966;2024-01-25T07:49:49;8.22;80.85
71254;HTU21D;59019;47.638;18.966;2024-01-25T07:52:15;8.19;80.71
71254;HTU21D;59019;47.638;18.966;2024-01-25T07:54:41;8.28;80.39
71254;HTU21D;59019;47.638;18.966;2024-01-25T07:57:07;8.22;79.85
71254;HTU21D;59019;47.638;18.966;2024-01-25T07:59:34;8.29;78.83
71254;HTU21D;59019;47.638;18.966;2024-01-25T08:02:01;8.41;78.01
71254;HTU21D;59019;47.638;18.966;2024-01-25T08:04:27;8.39;77.69
71254;HTU21D;59019;47.638;18.966;2024-01-25T08:06:58;8.42;78.37
71254;HTU21D;59019;47.638;18.966;2024-01-25T08:09:24;8.48;78.35
71254;HTU21D;59019;47.638;18.966;2024-01-25T08:11:51;8.58;77.55
71254;HTU21D;59019;47.638;18.966;2024-01-25T08:14:17;8.56;78.38
71254;HTU21D;59019;47.638;18.966;2024-01-25T08:16:44;8.57;78.48
71254;HTU21D;59019;47.638;18.966;2024-01-25T08:19:10;8.65;78.67
71254;HTU21D;59019;47.638;18.966;2024-01-25T08:21:36;8.64;78.34
71254;HTU21D;59019;47.638;18.966;2024-01-25T08:24:03;8.68;78.35
71254;HTU21D;59019;47.638;18.966;2024-01-25T08:26:30;8.74;79.02
71254;HTU21D;59019;47.638;18.966;2024-01-25T08:28:56;8.48;79.69
71254;HTU21D;59019;47.638;18.966;2024-01-25T08:31:22;8.57;79.82
71254;HTU21D;59019;47.638;18.966;2024-01-25T08:33:49;8.67;79.83
71254;HTU21D;59019;47.638;18.966;2024-01-25T08:36:18;8.61;79.97
71254;HTU21D;59019;47.638;18.966;2024-01-25T08:38:44;8.65;80.42
71254;HTU21D;59019;47.638;18.966;2024-01-25T08:41:10;8.74;80.44
71254;HTU21D;59019;47.638;18.966;2024-01-25T08:43:37;8.76;80.21
71254;HTU21D;59019;47.638;18.966;2024-01-25T08:46:04;8.66;80.49
71254;HTU21D;59019;47.638;18.966;2024-01-25T08:48:31;8.65;80.60
71254;HTU21D;59019;47.638;18.966;2024-01-25T08:50:57;8.75;80.20
71254;HTU21D;59019;47.638;18.966;2024-01-25T08:53:24;8.73;79.99
71254;HTU21D;59019;47.638;18.966;2024-01-25T08:55:53;8.76;80.34
71254;HTU21D;59019;47.638;18.966;2024-01-25T08:58:20;8.82;80.37
71254;HTU21D;59019;47.638;18.966;2024-01-25T09:00:47;8.87;80.00
71254;HTU21D;59019;47.638;18.966;2024-01-25T09:03:14;8.82;80.33
71254;HTU21D;59019;47.638;18.966;2024-01-25T09:05:40;9.14;79.91
71254;HTU21D;59019;47.638;18.966;2024-01-25T09:08:14;9.11;79.91
71254;HTU21D;59019;47.638;18.966;2024-01-25T09:10:41;9.01;79.86
71254;HTU21D;59019;47.638;18.966;2024-01-25T09:13:08;9.11;79.14
71254;HTU21D;59019;47.638;18.966;2024-01-25T09:15:34;9.06;79.30
71254;HTU21D;59019;47.638;18.966;2024-01-25T09:18:00;9.07;79.43
71254;HTU21D;59019;47.638;18.966;2024-01-25T09:20:27;9.12;79.26
71254;HTU21D;59019;47.638;18.966;2024-01-25T09:22:53;9.17;79.11
71254;HTU21D;59019;47.638;18.966;2024-01-25T09:25:23;9.21;79.29
71254;HTU21D;59019;47.638;18.966;2024-01-25T09:27:49;9.33;79.74
71254;HTU21D;59019;47.638;18.966;2024-01-25T09:30:16;9.46;79.42
71254;HTU21D;59019;47.638;18.966;2024-01-25T09:32:43;9.37;79.58
71254;HTU21D;59019;47.638;18.966;2024-01-25T09:35:09;9.39;79.46
71254;HTU21D;59019;47.638;18.966;2024-01-25T09:37:36;9.48;79.59
71254;HTU21D;59019;47.638;18.966;2024-01-25T09:40:03;9.39;79.36
71254;HTU21D;59019;47.638;18.966;2024-01-25T09:42:30;9.34;79.64
71254;HTU21D;59019;47.638;18.966;2024-01-25T09:44:57;9.41;79.81
71254;HTU21D;59019;47.638;18.966;2024-01-25T09:47:23;9.41;79.16
71254;HTU21D;59019;47.638;18.966;2024-01-25T09:49:50;9.41;78.88
71254;HTU21D;59019;47.638;18.966;2024-01-25T09:52:19;9.69;78.63
71254;HTU21D;59019;47.638;18.966;2024-01-25T09:54:50;9.85;77.24
71254;HTU21D;59019;47.638;18.966;2024-01-25T09:57:20;9.83;75.73
71254;HTU21D;59019;47.638;18.966;2024-01-25T09:59:49;9.99;75.52
71254;HTU21D;59019;47.638;18.966;2024-01-25T10:02:16;10.14;74.80
71254;HTU21D;59019;47.638;18.966;2024-01-25T10:04:48;10.24;74.39
71254;HTU21D;59019;47.638;18.966;2024-01-25T10:07:15;10.31;73.96
71254;HTU21D;59019;47.638;18.966;2024-01-25T10:09:41;10.39;73.70
71254;HTU21D;59019;47.638;18.966;2024-01-25T10:12:07;10.52;73.48
71254;HTU21D;59019;47.638;18.966;2024-01-25T10:14:34;10.68;72.90
71254;HTU21D;59019;47.638;18.966;2024-01-25T10:17:01;10.89;72.35
71254;HTU21D;59019;47.638;18.966;2024-01-25T10:19:28;10.87;72.64
71254;HTU21D;59019;47.638;18.966;2024-01-25T10:21:56;11.15;72.21
71254;HTU21D;59019;47.638;18.966;2024-01-25T10:24:23;11.05;72.27
71254;HTU21D;59019;47.638;18.966;2024-01-25T10:26:49;11.10;73.06
71254;HTU21D;59019;47.638;18.966;2024-01-25T10:29:16;11.04;72.27
71254;HTU21D;59019;47.638;18.966;2024-01-25T10:31:43;11.13;72.46
71254;HTU21D;59019;47.638;18.966;2024-01-25T10:34:13;11.12;72.57
71254;HTU21D;59019;47.638;18.966;2024-01-25T10:36:44;11.10;72.62
71254;HTU21D;59019;47.638;18.966;2024-01-25T10:39:11;11.19;71.77
71254;HTU21D;59019;47.638;18.966;2024-01-25T10:41:40;10.90;71.81
71254;HTU21D;59019;47.638;18.966;2024-01-25T10:44:07;10.71;72.00
71254;HTU21D;59019;47.638;18.966;2024-01-25T10:46:34;10.88;72.98
71254;HTU21D;59019;47.638;18.966;2024-01-25T10:49:00;10.94;72.03
71254;HTU21D;59019;47.638;18.966;2024-01-25T10:51:28;10.93;70.80
71254;HTU21D;59019;47.638;18.966;2024-01-25T10:53:55;10.82;70.97
71254;HTU21D;59019;47.638;18.966;2024-01-25T10:56:22;10.81;71.26
71254;HTU21D;59019;47.638;18.966;2024-01-25T10:58:48;10.99;70.76
71254;HTU21D;59019;47.638;18.966;2024-01-25T11:01:16;10.93;70.35
71254;HTU21D;59019;47.638;18.966;2024-01-25T11:03:45;10.67;70.32
71254;HTU21D;59019;47.638;18.966;2024-01-25T11:06:15;10.87;70.45
71254;HTU21D;59019;47.638;18.966;2024-01-25T11:08:41;10.74;70.28
71254;HTU21D;59019;47.638;18.966;2024-01-25T11:11:10;11.05;70.01
71254;HTU21D;59019;47.638;18.966;2024-01-25T11:13:40;10.94;69.46
71254;HTU21D;59019;47.638;18.966;2024-01-25T11:18:54;11.16;69.11
71254;HTU21D;59019;47.638;18.966;2024-01-25T11:21:45;11.16;68.80
71254;HTU21D;59019;47.638;18.966;2024-01-25T11:24:13;11.11;69.36
71254;HTU21D;59019;47.638;18.966;2024-01-25T11:26:40;10.84;70.02
71254;HTU21D;59019;47.638;18.966;2024-01-25T11:29:06;10.89;70.66
71254;HTU21D;59019;47.638;18.966;2024-01-25T11:31:33;11.15;69.95
71254;HTU21D;59019;47.638;18.966;2024-01-25T11:33:59;11.16;69.77
71254;HTU21D;59019;47.638;18.966;2024-01-25T11:36:26;11.33;69.90
71254;HTU21D;59019;47.638;18.966;2024-01-25T11:38:53;11.54;70.10
71254;HTU21D;59019;47.638;18.966;2024-01-25T11:41:20;11.37;69.36
71254;HTU21D;59019;47.638;18.966;2024-01-25T11:43:49;11.40;69.07
71254;HTU21D;59019;47.638;18.966;2024-01-25T11:46:15;11.40;68.87
71254;HTU21D;59019;47.638;18.966;2024-01-25T11:48:41;11.03;69.54
71254;HTU21D;59019;47.638;18.966;2024-01-25T11:51:10;11.14;69.83
71254;HTU21D;59019;47.638;18.966;2024-01-25T11:53:39;10.98;70.10
71254;HTU21D;59019;47.638;18.966;2024-01-25T11:56:12;11.17;69.29
71254;HTU21D;59019;47.638;18.966;2024-01-25T11:58:38;11.07;68.20
71254;HTU21D;59019;47.638;18.966;2024-01-25T12:01:05;11.16;68.55
71254;HTU21D;59019;47.638;18.966;2024-01-25T12:03:36;11.03;68.10
71254;HTU21D;59019;47.638;18.966;2024-01-25T12:06:23;11.11;67.50
71254;HTU21D;59019;47.638;18.966;2024-01-25T12:08:49;11.23;67.44
71254;HTU21D;59019;47.638;18.966;2024-01-25T12:11:17;11.24;67.20
71254;HTU21D;59019;47.638;18.966;2024-01-25T12:13:44;11.19;66.85
71254;HTU21D;59019;47.638;18.966;2024-01-25T12:16:11;11.14;67.01
71254;HTU21D;59019;47.638;18.966;2024-01-25T12:18:39;10.98;67.01
71254;HTU21D;59019;47.638;18.966;2024-01-25T12:21:05;10.75;67.26
71254;HTU21D;59019;47.638;18.966;2024-01-25T12:23:39;10.88;68.08
71254;HTU21D;59019;47.638;18.966;2024-01-25T12:26:25;11.27;67.85
71254;HTU21D;59019;47.638;18.966;2024-01-25T12:28:51;11.45;68.08
71254;HTU21D;59019;47.638;18.966;2024-01-25T12:31:18;11.41;67.66
71254;HTU21D;59019;47.638;18.966;2024-01-25T12:33:44;11.25;67.42
71254;HTU21D;59019;47.638;18.966;2024-01-25T12:36:10;10.85;67.68
71254;HTU21D;59019;47.638;18.966;2024-01-25T12:38:36;10.71;68.37
71254;HTU21D;59019;47.638;18.966;2024-01-25T12:41:04;10.65;68.57
71254;HTU21D;59019;47.638;18.966;2024-01-25T12:43:30;10.65;68.59
71254;HTU21D;59019;47.638;18.966;2024-01-25T12:45:56;10.77;68.39
71254;HTU21D;59019;47.638;18.966;2024-01-25T12:48:23;10.85;68.21
71254;HTU21D;59019;47.638;18.966;2024-01-25T12:50:49;10.98;68.10
71254;HTU21D;59019;47.638;18.966;2024-01-25T12:53:16;11.13;67.94
71254;HTU21D;59019;47.638;18.966;2024-01-25T12:55:42;11.14;67.35
71254;HTU21D;59019;47.638;18.966;2024-01-25T12:58:08;11.13;67.11
71254;HTU21D;59019;47.638;18.966;2024-01-25T13:00:35;11.03;67.07
71254;HTU21D;59019;47.638;18.966;2024-01-25T13:03:02;10.87;67.27
71254;HTU21D;59019;47.638;18.966;2024-01-25T13:05:29;10.79;67.65
71254;HTU21D;59019;47.638;18.966;2024-01-25T13:08:19;10.71;68.28
71254;HTU21D;59019;47.638;18.966;2024-01-25T13:10:49;10.30;68.39
71254;HTU21D;59019;47.638;18.966;2024-01-25T13:13:15;10.33;69.61
71254;HTU21D;59019;47.638;18.966;2024-01-25T13:15:45;10.08;70.10
71254;HTU21D;59019;47.638;18.966;2024-01-25T13:18:12;9.79;71.04
71254;HTU21D;59019;47.638;18.966;2024-01-25T13:20:38;9.67;71.34
71254;HTU21D;59019;47.638;18.966;2024-01-25T13:23:04;9.64;71.74
71254;HTU21D;59019;47.638;18.966;2024-01-25T13:25:32;9.65;72.17
71254;HTU21D;59019;47.638;18.966;2024-01-25T13:27:59;9.78;71.83
71254;HTU21D;59019;47.638;18.966;2024-01-25T13:30:25;9.69;72.24
71254;HTU21D;59019;47.638;18.966;2024-01-25T13:32:52;9.72;72.03
71254;HTU21D;59019;47.638;18.966;2024-01-25T13:35:18;9.99;71.49
71254;HTU21D;59019;47.638;18.966;2024-01-25T13:37:45;9.78;71.22
71254;HTU21D;59019;47.638;18.966;2024-01-25T13:40:12;9.68;71.19
71254;HTU21D;59019;47.638;18.966;2024-01-25T13:42:38;9.50;71.85
71254;HTU21D;59019;47.638;18.966;2024-01-25T13:45:06;9.27;72.19
71254;HTU21D;59019;47.638;18.966;2024-01-25T13:47:32;9.06;72.87
71254;HTU21D;59019;47.638;18.966;2024-01-25T13:49:58;9.02;73.26
71254;HTU21D;59019;47.638;18.966;2024-01-25T13:52:24;8.91;73.48
71254;HTU21D;59019;47.638;18.966;2024-01-25T13:54:50;8.88;73.72
71254;HTU21D;59019;47.638;18.966;2024-01-25T13:57:17;8.86;73.54
71254;HTU21D;59019;47.638;18.966;2024-01-25T13:59:46;8.71;73.96
71254;HTU21D;59019;47.638;18.966;2024-01-25T14:02:13;8.62;74.57
71254;HTU21D;59019;47.638;18.966;2024-01-25T14:04:39;8.65;74.64
71254;HTU21D;59019;47.638;18.966;2024-01-25T14:07:06;8.68;74.51
71254;HTU21D;59019;47.638;18.966;2024-01-25T14:09:32;8.66;74.82
71254;HTU21D;59019;47.638;18.966;2024-01-25T14:11:58;8.57;74.53
71254;HTU21D;59019;47.638;18.966;2024-01-25T14:14:24;8.68;74.50
71254;HTU21D;59019;47.638;18.966;2024-01-25T14:16:54;8.57;74.49
71254;HTU21D;59019;47.638;18.966;2024-01-25T14:19:21;8.66;74.73
71254;HTU21D;59019;47.638;18.966;2024-01-25T14:21:50;8.73;74.70
71254;HTU21D;59019;47.638;18.966;2024-01-25T14:24:17;8.67;74.36
71254;HTU21D;59019;47.638;18.966;2024-01-25T14:26:44;8.73;74.31
71254;HTU21D;59019;47.638;18.966;2024-01-25T14:29:10;8.60;74.49
71254;HTU21D;59019;47.638;18.966;2024-01-25T14:31:37;8.62;74.39
71254;HTU21D;59019;47.638;18.966;2024-01-25T14:34:02;8.65;74.23
71254;HTU21D;59019;47.638;18.966;2024-01-25T14:36:29;8.50;74.52
71254;HTU21D;59019;47.638;18.966;2024-01-25T14:38:55;8.50;75.05
71254;HTU21D;59019;47.638;18.966;2024-01-25T14:41:22;8.46;75.27
71254;HTU21D;59019;47.638;18.966;2024-01-25T14:43:51;8.39;75.11
71254;HTU21D;59019;47.638;18.966;2024-01-25T14:46:21;8.28;75.06
71254;HTU21D;59019;47.638;18.966;2024-01-25T14:48:50;8.31;75.02
71254;HTU21D;59019;47.638;18.966;2024-01-25T14:51:16;8.31;75.11
71254;HTU21D;59019;47.638;18.966;2024-01-25T14:53:42;8.23;74.88
71254;HTU21D;59019;47.638;18.966;2024-01-25T14:56:09;8.22;75.11
71254;HTU21D;59019;47.638;18.966;2024-01-25T14:58:38;8.34;75.17
71254;HTU21D;59019;47.638;18.966;2024-01-25T15:01:05;8.29;75.06
71254;HTU21D;59019;47.638;18.966;2024-01-25T15:03:32;8.24;75.05
71254;HTU21D;59019;47.638;18.966;2024-01-25T15:05:58;8.20;75.06
71254;HTU21D;59019;47.638;18.966;2024-01-25T15:08:25;8.22;75.52
71254;HTU21D;59019;47.638;18.966;2024-01-25T15:10:52;8.11;75.54
71254;HTU21D;59019;47.638;18.966;2024-01-25T15:13:19;8.15;75.47
71254;HTU21D;59019;47.638;18.966;2024-01-25T15:15:46;8.29;75.09